sensor_id;sensor_type;location;lat;lon;timestamp;P1;durP1;ratioP1;P2;durP2;ratioP2
61739;SDS011;47645;45.288;12.038;2023-04-23T00:00:32;6.6;;;5.3;;
61739;SDS011;47645;45.288;12.038;2023-04-23T00:10:32;6.3;;;4.9;;
61739;SDS011;47645;45.288;12.038;2023-04-23T00:20:34;5.8;;;4.6;;
61739;SDS011;47645;45.288;12.038;2023-04-23T00:30:34;8.6;;;6.3;;
61739;SDS011;47645;45.288;12.038;2023-04-23T00:40:35;8.9;;;6.6;;
61739;SDS011;47645;45.288;12.038;2023-04-23T00:50:36;7.9;;;6.2;;
61739;SDS011;47645;45.288;12.038;2023-04-23T01:00:37;7.1;;;5.5;;
61739;SDS011;47645;45.288;12.038;2023-04-23T01:10:38;7.5;;;5.8;;
61739;SDS011;47645;45.288;12.038;2023-04-23T01:20:39;8.8;;;6.5;;
61739;SDS011;47645;45.288;12.038;2023-04-23T01:30:41;11.1;;;8.1;;
61739;SDS011;47645;45.288;12.038;2023-04-23T01:40:41;8.6;;;5.7;;
61739;SDS011;47645;45.288;12.038;2023-04-23T01:50:41;7.2;;;5.5;;
61739;SDS011;47645;45.288;12.038;2023-04-23T02:00:42;7.3;;;5.5;;
61739;SDS011;47645;45.288;12.038;2023-04-23T02:10:43;10.2;;;5.7;;
61739;SDS011;47645;45.288;12.038;2023-04-23T02:20:44;6.8;;;4.9;;
61739;SDS011;47645;45.288;12.038;2023-04-23T02:30:47;6.2;;;5.3;;
61739;SDS011;47645;45.288;12.038;2023-04-23T02:40:46;8.5;;;5.8;;
61739;SDS011;47645;45.288;12.038;2023-04-23T02:50:46;8.0;;;6.0;;
61739;SDS011;47645;45.288;12.038;2023-04-23T03:00:47;7.8;;;5.1;;
61739;SDS011;47645;45.288;12.038;2023-04-23T03:10:48;6.3;;;5.1;;
61739;SDS011;47645;45.288;12.038;2023-04-23T03:20:49;7.6;;;5.5;;
61739;SDS011;47645;45.288;12.038;2023-04-23T03:30:50;8.2;;;6.3;;
61739;SDS011;47645;45.288;12.038;2023-04-23T03:40:50;8.3;;;5.8;;
61739;SDS011;47645;45.288;12.038;2023-04-23T03:50:51;10.1;;;6.4;;
61739;SDS011;47645;45.288;12.038;2023-04-23T04:00:52;8.6;;;6.3;;
61739;SDS011;47645;45.288;12.038;2023-04-23T04:10:53;11.7;;;7.5;;
61739;SDS011;47645;45.288;12.038;2023-04-23T04:20:54;8.8;;;6.3;;
61739;SDS011;47645;45.288;12.038;2023-04-23T04:30:56;8.8;;;6.5;;
61739;SDS011;47645;45.288;12.038;2023-04-23T04:40:59;9.3;;;6.6;;
61739;SDS011;47645;45.288;12.038;2023-04-23T04:50:56;13.1;;;10.2;;
61739;SDS011;47645;45.288;12.038;2023-04-23T05:00:57;13.3;;;10.1;;
61739;SDS011;47645;45.288;12.038;2023-04-23T05:11:00;12.2;;;8.8;;
61739;SDS011;47645;45.288;12.038;2023-04-23T05:20:59;16.4;;;12.2;;
61739;SDS011;47645;45.288;12.038;2023-04-23T05:31:00;20.6;;;13.8;;
61739;SDS011;47645;45.288;12.038;2023-04-23T05:41:00;18.1;;;13.3;;
61739;SDS011;47645;45.288;12.038;2023-04-23T05:51:01;20.3;;;14.6;;
61739;SDS011;47645;45.288;12.038;2023-04-23T06:01:02;21.2;;;14.8;;
61739;SDS011;47645;45.288;12.038;2023-04-23T06:11:03;19.8;;;14.6;;
61739;SDS011;47645;45.288;12.038;2023-04-23T06:21:05;21.9;;;14.4;;
61739;SDS011;47645;45.288;12.038;2023-04-23T06:31:05;20.5;;;14.2;;
61739;SDS011;47645;45.288;12.038;2023-04-23T06:41:06;19.0;;;13.8;;
61739;SDS011;47645;45.288;12.038;2023-04-23T06:51:07;18.1;;;13.0;;
61739;SDS011;47645;45.288;12.038;2023-04-23T07:01:08;21.3;;;15.2;;
61739;SDS011;47645;45.288;12.038;2023-04-23T07:11:10;13.9;;;10.5;;
61739;SDS011;47645;45.288;12.038;2023-04-23T07:21:09;10.4;;;8.0;;
61739;SDS011;47645;45.288;12.038;2023-04-23T07:31:11;18.7;;;11.6;;
61739;SDS011;47645;45.288;12.038;2023-04-23T07:41:11;8.0;;;6.7;;
61739;SDS011;47645;45.288;12.038;2023-04-23T07:51:12;14.2;;;9.9;;
61739;SDS011;47645;45.288;12.038;2023-04-23T08:01:13;8.2;;;6.4;;
61739;SDS011;47645;45.288;12.038;2023-04-23T08:11:14;7.8;;;5.5;;
61739;SDS011;47645;45.288;12.038;2023-04-23T08:21:15;7.5;;;5.6;;
61739;SDS011;47645;45.288;12.038;2023-04-23T08:31:16;6.4;;;4.9;;
61739;SDS011;47645;45.288;12.038;2023-04-23T08:41:17;6.0;;;4.6;;
61739;SDS011;47645;45.288;12.038;2023-04-23T08:51:18;6.3;;;4.2;;
61739;SDS011;47645;45.288;12.038;2023-04-23T09:01:19;4.9;;;4.1;;
61739;SDS011;47645;45.288;12.038;2023-04-23T09:11:21;6.5;;;4.4;;
61739;SDS011;47645;45.288;12.038;2023-04-23T09:21:21;4.0;;;3.4;;
61739;SDS011;47645;45.288;12.038;2023-04-23T09:31:23;5.1;;;4.1;;
61739;SDS011;47645;45.288;12.038;2023-04-23T09:41:24;4.1;;;3.0;;
61739;SDS011;47645;45.288;12.038;2023-04-23T09:51:26;3.8;;;2.5;;
61739;SDS011;47645;45.288;12.038;2023-04-23T10:01:26;5.0;;;3.3;;
61739;SDS011;47645;45.288;12.038;2023-04-23T10:11:27;4.0;;;3.1;;
61739;SDS011;47645;45.288;12.038;2023-04-23T10:21:28;4.4;;;3.3;;
61739;SDS011;47645;45.288;12.038;2023-04-23T10:31:30;3.0;;;2.3;;
61739;SDS011;47645;45.288;12.038;2023-04-23T10:41:32;3.2;;;2.5;;
61739;SDS011;47645;45.288;12.038;2023-04-23T10:51:33;3.4;;;2.8;;
61739;SDS011;47645;45.288;12.038;2023-04-23T11:01:34;3.9;;;2.6;;
61739;SDS011;47645;45.288;12.038;2023-04-23T11:11:38;3.8;;;2.7;;
61739;SDS011;47645;45.288;12.038;2023-04-23T11:22:12;4.7;;;3.2;;
61739;SDS011;47645;45.288;12.038;2023-04-23T11:31:38;3.9;;;3.0;;
61739;SDS011;47645;45.288;12.038;2023-04-23T11:41:39;3.8;;;3.0;;
61739;SDS011;47645;45.288;12.038;2023-04-23T11:51:42;3.4;;;2.9;;
61739;SDS011;47645;45.288;12.038;2023-04-23T12:01:43;3.4;;;2.6;;
61739;SDS011;47645;45.288;12.038;2023-04-23T12:11:44;5.1;;;3.6;;
61739;SDS011;47645;45.288;12.038;2023-04-23T12:21:46;5.4;;;3.3;;
61739;SDS011;47645;45.288;12.038;2023-04-23T12:31:47;5.3;;;3.9;;
61739;SDS011;47645;45.288;12.038;2023-04-23T12:41:49;4.3;;;3.9;;
61739;SDS011;47645;45.288;12.038;2023-04-23T12:51:51;4.6;;;4.1;;
61739;SDS011;47645;45.288;12.038;2023-04-23T13:01:52;5.3;;;4.3;;
61739;SDS011;47645;45.288;12.038;2023-04-23T13:11:53;5.5;;;4.1;;
61739;SDS011;47645;45.288;12.038;2023-04-23T13:21:55;5.4;;;4.1;;
61739;SDS011;47645;45.288;12.038;2023-04-23T13:31:57;7.8;;;4.6;;
61739;SDS011;47645;45.288;12.038;2023-04-23T13:41:58;5.0;;;4.1;;
61739;SDS011;47645;45.288;12.038;2023-04-23T13:52:03;6.1;;;4.1;;
61739;SDS011;47645;45.288;12.038;2023-04-23T14:02:01;7.4;;;5.0;;
61739;SDS011;47645;45.288;12.038;2023-04-23T14:12:03;8.1;;;4.8;;
61739;SDS011;47645;45.288;12.038;2023-04-23T14:22:05;5.3;;;4.6;;
61739;SDS011;47645;45.288;12.038;2023-04-23T14:32:06;7.2;;;4.9;;
61739;SDS011;47645;45.288;12.038;2023-04-23T14:42:08;6.7;;;4.6;;
61739;SDS011;47645;45.288;12.038;2023-04-23T14:52:09;5.7;;;4.3;;
61739;SDS011;47645;45.288;12.038;2023-04-23T15:02:11;7.2;;;6.2;;
61739;SDS011;47645;45.288;12.038;2023-04-23T15:12:27;6.2;;;4.2;;
61739;SDS011;47645;45.288;12.038;2023-04-23T15:22:14;5.2;;;4.2;;
61739;SDS011;47645;45.288;12.038;2023-04-23T15:32:15;7.0;;;4.3;;
61739;SDS011;47645;45.288;12.038;2023-04-23T15:42:20;6.7;;;4.2;;
61739;SDS011;47645;45.288;12.038;2023-04-23T15:52:18;6.0;;;4.2;;
61739;SDS011;47645;45.288;12.038;2023-04-23T16:02:20;5.0;;;3.7;;
61739;SDS011;47645;45.288;12.038;2023-04-23T16:12:21;6.1;;;3.8;;
61739;SDS011;47645;45.288;12.038;2023-04-23T16:22:24;4.4;;;3.4;;
61739;SDS011;47645;45.288;12.038;2023-04-23T16:32:24;6.8;;;4.4;;
61739;SDS011;47645;45.288;12.038;2023-04-23T16:42:26;8.3;;;5.5;;
61739;SDS011;47645;45.288;12.038;2023-04-23T16:52:27;5.9;;;4.1;;
61739;SDS011;47645;45.288;12.038;2023-04-23T17:02:28;7.8;;;5.0;;
61739;SDS011;47645;45.288;12.038;2023-04-23T17:12:29;6.1;;;3.9;;
61739;SDS011;47645;45.288;12.038;2023-04-23T17:22:31;6.4;;;3.8;;
61739;SDS011;47645;45.288;12.038;2023-04-23T17:32:32;5.7;;;4.2;;
61739;SDS011;47645;45.288;12.038;2023-04-23T17:42:34;7.7;;;5.0;;
61739;SDS011;47645;45.288;12.038;2023-04-23T17:52:35;8.0;;;6.0;;
61739;SDS011;47645;45.288;12.038;2023-04-23T18:02:40;7.8;;;6.1;;
61739;SDS011;47645;45.288;12.038;2023-04-23T18:12:37;6.8;;;5.6;;
61739;SDS011;47645;45.288;12.038;2023-04-23T18:22:40;6.6;;;5.2;;
61739;SDS011;47645;45.288;12.038;2023-04-23T18:32:41;13.7;;;10.6;;
61739;SDS011;47645;45.288;12.038;2023-04-23T18:42:41;7.0;;;5.5;;
61739;SDS011;47645;45.288;12.038;2023-04-23T18:52:42;13.1;;;10.2;;
61739;SDS011;47645;45.288;12.038;2023-04-23T19:02:43;7.3;;;6.1;;
61739;SDS011;47645;45.288;12.038;2023-04-23T19:12:45;9.0;;;5.4;;
61739;SDS011;47645;45.288;12.038;2023-04-23T19:22:46;7.7;;;5.6;;
61739;SDS011;47645;45.288;12.038;2023-04-23T19:32:47;8.2;;;5.4;;
61739;SDS011;47645;45.288;12.038;2023-04-23T19:42:48;7.4;;;5.2;;
61739;SDS011;47645;45.288;12.038;2023-04-23T19:52:49;8.9;;;5.3;;
61739;SDS011;47645;45.288;12.038;2023-04-23T20:02:51;8.5;;;5.4;;
61739;SDS011;47645;45.288;12.038;2023-04-23T20:12:51;11.0;;;6.4;;
61739;SDS011;47645;45.288;12.038;2023-04-23T20:22:52;9.3;;;6.6;;
61739;SDS011;47645;45.288;12.038;2023-04-23T20:32:53;14.0;;;8.8;;
61739;SDS011;47645;45.288;12.038;2023-04-23T20:42:54;10.7;;;7.9;;
61739;SDS011;47645;45.288;12.038;2023-04-23T20:52:55;15.1;;;8.4;;
61739;SDS011;47645;45.288;12.038;2023-04-23T21:02:56;12.6;;;8.4;;
61739;SDS011;47645;45.288;12.038;2023-04-23T21:12:57;9.9;;;7.0;;
61739;SDS011;47645;45.288;12.038;2023-04-23T21:22:58;13.0;;;6.5;;
61739;SDS011;47645;45.288;12.038;2023-04-23T21:33:01;9.4;;;6.7;;
61739;SDS011;47645;45.288;12.038;2023-04-23T21:43:00;10.5;;;6.5;;
61739;SDS011;47645;45.288;12.038;2023-04-23T21:53:03;12.6;;;7.3;;
61739;SDS011;47645;45.288;12.038;2023-04-23T22:08:03;16.2;;;7.8;;
61739;SDS011;47645;45.288;12.038;2023-04-23T22:13:03;12.6;;;7.4;;
61739;SDS011;47645;45.288;12.038;2023-04-23T22:23:04;14.4;;;7.0;;
61739;SDS011;47645;45.288;12.038;2023-04-23T22:33:05;13.0;;;7.4;;
61739;SDS011;47645;45.288;12.038;2023-04-23T22:43:06;14.3;;;7.8;;
61739;SDS011;47645;45.288;12.038;2023-04-23T22:53:07;12.9;;;7.5;;
61739;SDS011;47645;45.288;12.038;2023-04-23T23:03:08;11.6;;;7.3;;
61739;SDS011;47645;45.288;12.038;2023-04-23T23:13:09;12.8;;;6.4;;
61739;SDS011;47645;45.288;12.038;2023-04-23T23:23:10;13.4;;;8.2;;
61739;SDS011;47645;45.288;12.038;2023-04-23T23:33:11;17.4;;;8.7;;
61739;SDS011;47645;45.288;12.038;2023-04-23T23:43:12;15.0;;;8.8;;
61739;SDS011;47645;45.288;12.038;2023-04-23T23:53:13;16.8;;;8.9;;
